Time;durP1;ratioP1;P1;durP2;ratioP2;P2;SDS_P1;SDS_P2;PMS_P1;PMS_P2;Temp;Humidity;BMP_temperature;BMP_pressure;BME280_temperature;BME280_humidity;BME280_pressure;Samples;Min_cycle;Max_cycle;Signal;HPM_P1;HPM_P2
2021/12/15 19:50:10;;;;;;;10.70;4.20;;;21.80;61.00;;;;;;5126178;27;1935636;-92
2021/12/15 19:52:37;;;;;;;9.18;4.10;;;19.50;71.30;;;;;;5135025;27;20098;-92
2021/12/15 19:55:07;;;;;;;10.75;4.45;;;17.40;73.60;;;;;;5134484;27;20125;-93
2021/12/15 19:57:33;;;;;;;10.77;4.70;;;15.80;78.70;;;;;;5120925;27;20473;-92
2021/12/15 19:59:59;;;;;;;9.20;5.07;;;14.50;86.90;;;;;;5131568;27;20035;-92
2021/12/15 20:02:25;;;;;;;12.07;5.85;;;13.40;92.80;;;;;;5130912;27;20045;-92
2021/12/15 20:04:51;;;;;;;12.07;6.15;;;12.60;96.80;;;;;;5113633;27;20499;-92
2021/12/15 20:07:18;;;;;;;12.45;5.85;;;11.90;99.90;;;;;;5148351;27;20042;-92
2021/12/15 20:09:45;;;;;;;10.50;5.72;;;11.50;99.90;;;;;;5130074;27;20050;-93
2021/12/15 20:12:18;;;;;;;14.48;6.95;;;11.10;99.90;;;;;;5130209;27;20031;-93
2021/12/15 20:14:44;;;;;;;14.00;7.32;;;10.80;99.90;;;;;;5130792;27;20034;-93
2021/12/15 20:17:11;;;;;;;12.27;6.53;;;10.50;99.90;;;;;;5130891;27;20061;-92
2021/12/15 20:19:38;;;;;;;14.70;7.65;;;10.30;99.90;;;;;;5114373;27;20050;-92
2021/12/15 20:22:07;;;;;;;16.38;7.90;;;10.10;99.90;;;;;;5114025;27;20035;-92
2021/12/15 20:24:40;;;;;;;17.13;8.10;;;10.00;99.90;;;;;;5113422;27;20091;-92
2021/12/15 20:27:07;;;;;;;;;;;9.80;99.90;;;;;;5131460;27;20027;-92
2021/12/15 20:29:33;;;;;;;14.65;7.97;;;9.70;99.90;;;;;;5147725;27;20021;-93
2021/12/15 20:31:58;;;;;;;16.55;9.15;;;9.60;99.90;;;;;;5113477;27;20470;-93
2021/12/15 20:34:26;;;;;;;16.70;9.10;;;9.60;99.90;;;;;;5130409;27;20457;-94
2021/12/15 20:36:53;;;;;;;16.70;9.50;;;9.50;99.90;;;;;;5130913;27;20393;-94
2021/12/15 20:39:20;;;;;;;19.83;10.75;;;9.50;99.90;;;;;;5130499;27;20039;-94
2021/12/15 20:41:46;;;;;;;17.15;10.52;;;9.50;99.90;;;;;;5111769;27;20039;-94
2021/12/15 20:44:14;;;;;;;17.60;11.25;;;9.40;99.90;;;;;;5147191;27;20084;-93
2021/12/15 20:46:40;;;;;;;20.25;12.20;;;9.40;99.90;;;;;;5113475;27;20042;-94
2021/12/15 20:49:06;;;;;;;20.48;12.40;;;9.40;99.90;;;;;;5130526;27;20035;-93
2021/12/15 20:51:33;;;;;;;19.55;12.27;;;9.30;99.90;;;;;;5113548;27;20088;-93
2021/12/15 20:54:01;;;;;;;22.05;12.88;;;9.30;99.90;;;;;;5113381;27;20290;-95
2021/12/15 20:56:29;;;;;;;21.52;13.05;;;9.20;99.90;;;;;;5147719;27;20233;-94
2021/12/15 20:58:55;;;;;;;24.42;14.68;;;9.20;99.90;;;;;;5113291;27;20046;-94
2021/12/15 21:01:21;;;;;;;22.85;14.50;;;9.10;99.90;;;;;;5134804;27;20074;-94
2021/12/15 21:03:49;;;;;;;22.35;14.93;;;9.10;99.90;;;;;;5098739;27;20162;-94
2021/12/15 21:06:42;;;;;;;23.20;15.20;;;9.10;99.90;;;;;;5099445;27;20039;-93
2021/12/15 21:09:12;;;;;;;26.83;14.87;;;9.10;99.90;;;;;;5085498;28;20083;-94
2021/12/15 21:11:38;;;;;;;27.17;17.27;;;9.00;99.90;;;;;;5079221;28;20404;-94
2021/12/15 21:14:08;;;;;;;25.88;16.83;;;9.00;99.90;;;;;;5096212;28;20058;-93
2021/12/15 21:16:37;;;;;;;28.85;17.45;;;9.00;99.90;;;;;;5079351;28;20035;-93
2021/12/15 21:19:05;;;;;;;25.90;18.30;;;9.00;99.90;;;;;;5095720;28;20560;-93
2021/12/15 21:21:32;;;;;;;29.40;18.52;;;9.00;99.90;;;;;;5079092;28;20043;-93
2021/12/15 21:23:58;;;;;;;28.40;17.92;;;9.00;99.90;;;;;;5095332;28;20443;-93
2021/12/15 21:26:25;;;;;;;26.77;17.88;;;9.00;99.90;;;;;;5078888;28;20031;-93
2021/12/15 21:28:54;;;;;;;27.42;18.42;;;9.00;99.90;;;;;;5095675;28;20148;-94
2021/12/15 21:31:21;;;;;;;29.10;17.98;;;8.90;99.90;;;;;;5094830;28;20035;-94
2021/12/15 21:33:47;;;;;;;27.40;18.52;;;8.90;99.90;;;;;;5077161;28;20043;-92
2021/12/15 21:36:14;;;;;;;28.52;19.60;;;8.90;99.90;;;;;;5076116;28;20039;-94
2021/12/15 21:38:40;;;;;;;32.22;19.52;;;8.90;99.90;;;;;;5076789;28;20042;-93
2021/12/15 21:41:08;;;;;;;29.67;19.83;;;8.90;99.90;;;;;;5076740;28;20035;-94
2021/12/15 21:43:34;;;;;;;30.98;19.30;;;9.00;99.90;;;;;;5076797;28;20061;-94
2021/12/15 21:46:02;;;;;;;31.70;20.50;;;9.00;99.90;;;;;;5076484;28;20055;-94
2021/12/15 21:48:30;;;;;;;29.15;19.55;;;9.00;99.90;;;;;;5094054;28;20100;-93
2021/12/15 21:50:58;;;;;;;32.75;21.42;;;9.00;99.90;;;;;;5095739;28;20067;-93
2021/12/15 21:53:25;;;;;;;31.27;21.00;;;9.10;99.90;;;;;;5078611;28;20097;-93
2021/12/15 21:55:53;;;;;;;31.65;20.10;;;9.10;99.90;;;;;;5095824;28;20044;-93
2021/12/15 21:58:20;;;;;;;28.83;19.80;;;9.10;99.90;;;;;;5095275;28;20438;-93
2021/12/15 22:00:48;;;;;;;37.97;20.92;;;9.10;99.90;;;;;;5077818;28;20485;-93
2021/12/15 22:03:16;;;;;;;29.02;19.90;;;9.10;99.90;;;;;;5077989;28;20066;-93
2021/12/15 22:05:42;;;;;;;33.28;20.40;;;9.10;99.90;;;;;;5094615;28;20500;-94
2021/12/15 22:08:10;;;;;;;29.58;19.63;;;9.10;99.90;;;;;;5108734;27;20034;-93
2021/12/15 22:10:37;;;;;;;31.50;20.63;;;9.10;99.90;;;;;;5098630;27;20402;-94
2021/12/15 22:13:05;;;;;;;35.72;21.45;;;9.10;99.90;;;;;;5097599;27;20437;-94
2021/12/15 22:15:35;;;;;;;31.98;21.02;;;9.10;99.90;;;;;;5115491;27;20716;-94
2021/12/15 22:18:05;;;;;;;31.90;20.35;;;9.10;99.90;;;;;;5098077;27;20167;-94
2021/12/15 22:20:31;;;;;;;31.95;20.75;;;9.10;99.90;;;;;;5115055;27;20126;-94
2021/12/15 22:22:57;;;;;;;33.65;21.10;;;9.00;99.90;;;;;;5115056;27;20067;-94
2021/12/15 22:25:23;;;;;;;34.92;21.73;;;9.00;99.90;;;;;;5097663;27;20039;-94
2021/12/15 22:27:49;;;;;;;30.38;20.27;;;9.00;99.90;;;;;;5097810;27;20035;-94
2021/12/15 22:30:20;;;;;;;31.60;19.88;;;9.00;99.90;;;;;;5114997;27;20031;-95
2021/12/15 22:32:52;;;;;;;29.83;20.50;;;8.90;99.90;;;;;;5098192;27;20080;-94
2021/12/15 22:35:21;;;;;;;33.22;17.25;;;8.90;99.90;;;;;;5114752;27;20163;-94
2021/12/15 22:37:47;;;;;;;30.05;19.58;;;8.80;99.90;;;;;;5114173;27;20031;-94
2021/12/15 22:40:16;;;;;;;34.00;20.65;;;8.80;99.90;;;;;;5096569;27;20037;-94
2021/12/15 22:42:42;;;;;;;29.20;19.67;;;8.70;99.90;;;;;;5096492;27;20046;-93
2021/12/15 22:45:11;;;;;;;28.40;19.90;;;8.60;99.90;;;;;;5095517;27;20438;-94
2021/12/15 22:47:40;;;;;;;32.92;20.00;;;8.60;99.90;;;;;;5110427;27;20400;-94
2021/12/15 22:50:08;;;;;;;31.98;19.63;;;8.50;99.90;;;;;;5112965;27;20039;-94
2021/12/15 22:52:34;;;;;;;30.15;19.33;;;8.40;99.90;;;;;;5113398;27;20035;-93
2021/12/15 22:55:01;;;;;;;30.90;19.58;;;8.40;99.90;;;;;;5113089;27;20043;-94
2021/12/15 22:57:26;;;;;;;30.58;19.45;;;8.40;99.90;;;;;;5113173;27;20042;-94
2021/12/15 22:59:52;;;;;;;31.00;20.13;;;8.40;99.90;;;;;;5112695;27;20031;-94
2021/12/15 23:02:22;;;;;;;32.45;20.20;;;8.40;99.90;;;;;;5095593;27;20027;-94
2021/12/15 23:04:51;;;;;;;30.02;20.08;;;8.40;99.90;;;;;;5112575;27;20031;-94
2021/12/15 23:07:18;;;;;;;30.52;19.60;;;8.30;99.90;;;;;;5095500;27;20038;-94
2021/12/15 23:09:47;;;;;;;29.65;19.05;;;8.30;99.90;;;;;;5113224;27;20043;-94
2021/12/15 23:12:16;;;;;;;28.35;18.60;;;8.30;99.90;;;;;;5113223;27;20095;-94
2021/12/15 23:14:57;;;;;;;31.85;19.48;;;8.20;99.90;;;;;;5126470;27;20082;-95
2021/12/15 23:17:26;;;;;;;28.40;18.33;;;8.20;99.90;;;;;;5108637;27;20050;-94
2021/12/15 23:19:54;;;;;;;31.33;18.90;;;8.10;99.90;;;;;;5121451;27;20039;-93
2021/12/15 23:22:20;;;;;;;28.80;18.77;;;8.10;99.90;;;;;;5110995;27;20563;-94
2021/12/15 23:24:46;;;;;;;30.92;20.20;;;8.10;99.90;;;;;;5097423;27;20572;-94
2021/12/15 23:27:13;;;;;;;29.30;18.75;;;8.00;99.90;;;;;;5114805;27;20039;-94
2021/12/15 23:29:39;;;;;;;27.40;19.02;;;8.00;99.90;;;;;;5096157;27;20080;-94
2021/12/15 23:32:09;;;;;;;33.40;19.25;;;8.00;99.90;;;;;;5112902;28;20035;-94
2021/12/15 23:34:37;;;;;;;30.52;19.20;;;8.00;99.90;;;;;;5096835;28;20496;-93
2021/12/15 23:37:04;;;;;;;31.98;19.20;;;7.90;99.90;;;;;;5096335;27;20035;-94
2021/12/15 23:40:35;;;;;;;30.33;19.08;;;7.90;99.90;;;;;;5096859;28;20122;-95
